logo
Rechercher aéroport 
image banner adimage banner adimage banner ad
image banner ad

FZAA - Kinshasa/N'djili

Situé à Kinshasa, Congo, the Democratic Republic of the

ICAO - FZAA, IATA - FIH

Données fournies par Airmate  

Information générale

Coordonnées: S4°23'8" E15°26'41"
Élévation : 998 feet MSL.
 
Voir autres Aéroports à Kinshasa

Données opérationnelles

Special qualification required
Heure actuelle UTC:
Heure actuelle locale:
Météo
TAF: TAF FZAA 111700Z 1118/1224 22008KT 8000 SCT020 FEW028CB TEMPO 1119/1123 4000 TSRA BECMG 1201/1203 BKN014 BECMG 1211/1213 34010KT SCT022 FEW030CB PROB30 TEMPO 1214/1218 TS
Voir NOTAMs / SUP AIP / TFR affectant cet aéroport [VIEW]
Fréquences de communication: [VIEW]

Pistes:

Identifiant RWYQFULongueur (ft)Largeur (ft)SurfaceLDA (ft)
0657°13123197CON
24237°13123197CON

Coordonnées de l'aéroport

Adresse: Kinshasa Congo, the Democratic Republic of the

Vue satellite de FZAA